createdAt,value
2023-05-04T00:00:47.654Z,71.81
2023-05-04T00:03:16.360Z,72.62
2023-05-04T00:05:43.843Z,73.53
2023-05-04T00:08:11.647Z,73.25
2023-05-04T00:10:39.302Z,74.93
2023-05-04T00:13:06.898Z,73.54
2023-05-04T00:15:34.392Z,74.35
2023-05-04T00:18:02.221Z,75.79
2023-05-04T00:20:29.614Z,73.89
2023-05-04T00:22:56.981Z,74.82
2023-05-04T00:25:24.632Z,73.03
2023-05-04T00:27:53.510Z,72.54
2023-05-04T00:30:20.926Z,73.12
2023-05-04T00:32:48.737Z,72.88
2023-05-04T00:35:16.363Z,72.89
2023-05-04T00:37:45.206Z,72.61
2023-05-04T00:40:13.046Z,72.23
2023-05-04T00:42:40.389Z,73.36
2023-05-04T00:45:08.154Z,71.88
2023-05-04T00:47:36.169Z,70.68
2023-05-04T00:50:04.788Z,70.37
2023-05-04T00:52:32.521Z,71.07
2023-05-04T00:55:01.464Z,71.69
2023-05-04T00:57:28.938Z,71.56
2023-05-04T00:59:56.582Z,70.93
2023-05-04T01:02:26.588Z,70.22
2023-05-04T01:04:53.979Z,71.34
2023-05-04T01:08:06.295Z,71.65
2023-05-04T01:10:54.369Z,71.67
2023-05-04T01:13:22.155Z,70.22
2023-05-04T01:15:49.810Z,69.56
2023-05-04T01:18:17.198Z,70.25
2023-05-04T01:20:44.602Z,71.04
2023-05-04T01:23:12.420Z,69.96
2023-05-04T01:25:50.868Z,69.28
2023-05-04T01:28:26.873Z,69.69
2023-05-04T01:30:56.453Z,69.11
2023-05-04T01:33:24.234Z,69.31
2023-05-04T01:35:51.727Z,67.50
2023-05-04T01:38:19.096Z,67.54
2023-05-04T01:40:46.780Z,66.83
2023-05-04T01:43:14.201Z,66.32
2023-05-04T01:45:41.865Z,65.71
2023-05-04T01:48:09.659Z,65.47
2023-05-04T01:50:37.111Z,64.83
2023-05-04T01:53:04.509Z,64.82
2023-05-04T01:55:33.040Z,64.66
2023-05-04T01:58:00.623Z,65.04
2023-05-04T02:00:28.227Z,64.43
2023-05-04T02:02:56.112Z,64.35
2023-05-04T02:05:23.704Z,63.38
2023-05-04T02:07:53.604Z,63.25
2023-05-04T02:10:21.616Z,63.90
2023-05-04T02:12:49.088Z,64.00
2023-05-04T02:15:16.484Z,64.35
2023-05-04T02:17:44.227Z,65.47
2023-05-04T02:20:13.055Z,65.46
2023-05-04T02:22:42.315Z,67.05
2023-05-04T02:25:10.053Z,66.60
2023-05-04T02:27:37.462Z,66.30
2023-05-04T02:30:05.701Z,66.68
2023-05-04T02:32:33.677Z,65.93
2023-05-04T02:35:01.083Z,65.06
2023-05-04T02:37:29.455Z,64.53
2023-05-04T02:39:57.016Z,63.50
2023-05-04T02:42:24.405Z,64.00
2023-05-04T02:44:52.017Z,65.18
2023-05-04T02:47:20.792Z,66.94
2023-05-04T02:49:48.148Z,67.42
2023-05-04T02:52:15.855Z,67.37
2023-05-04T02:54:43.214Z,67.95
2023-05-04T02:57:11.035Z,67.32
2023-05-04T02:59:39.210Z,67.47
2023-05-04T03:02:07.625Z,67.29
2023-05-04T03:04:35.034Z,67.69
2023-05-04T03:07:02.759Z,66.52
2023-05-04T03:09:30.134Z,66.10
2023-05-04T03:11:57.558Z,65.31
2023-05-04T03:14:25.284Z,64.89
2023-05-04T03:16:52.897Z,64.73
2023-05-04T03:19:22.032Z,64.67
2023-05-04T03:21:51.994Z,64.83
2023-05-04T03:24:19.470Z,64.24
2023-05-04T03:26:47.755Z,63.99
2023-05-04T03:29:15.839Z,65.30
2023-05-04T03:31:43.399Z,64.81
2023-05-04T03:34:12.800Z,65.90
2023-05-04T03:36:40.824Z,65.32
2023-05-04T03:39:08.232Z,65.13
2023-05-04T03:41:36.732Z,66.02
2023-05-04T03:44:04.529Z,66.84
2023-05-04T03:46:31.976Z,65.80
2023-05-04T03:48:59.364Z,67.18
2023-05-04T03:51:27.514Z,68.40
2023-05-04T03:53:54.902Z,71.88
2023-05-04T03:56:23.354Z,71.09
2023-05-04T03:58:51.133Z,71.95
2023-05-04T04:01:19.985Z,73.06
2023-05-04T04:03:47.765Z,72.17
2023-05-04T04:06:15.901Z,72.43
2023-05-04T04:08:43.269Z,72.87
2023-05-04T04:11:10.925Z,71.70
2023-05-04T04:13:38.339Z,70.19
2023-05-04T04:16:06.734Z,74.24
2023-05-04T04:18:34.657Z,74.00
2023-05-04T04:21:02.055Z,72.11
2023-05-04T04:23:29.419Z,74.58
2023-05-04T04:25:57.157Z,73.81
2023-05-04T04:28:24.554Z,75.34
2023-05-04T04:30:51.993Z,74.67
2023-05-04T04:33:19.660Z,75.07
2023-05-04T04:35:47.458Z,72.89
2023-05-04T04:38:14.870Z,72.13
2023-05-04T04:40:42.815Z,71.19
2023-05-04T04:43:11.312Z,70.94
2023-05-04T04:45:41.120Z,70.98
2023-05-04T04:48:08.828Z,71.17
2023-05-04T04:50:39.169Z,71.20
2023-05-04T04:53:06.543Z,70.21
2023-05-04T04:55:34.889Z,70.55
2023-05-04T04:58:02.271Z,70.42
2023-05-04T05:00:30.027Z,69.60
2023-05-04T05:02:57.652Z,69.54
2023-05-04T05:05:25.109Z,69.31
2023-05-04T05:07:53.018Z,70.30
2023-05-04T05:10:23.951Z,69.73
2023-05-04T05:12:51.397Z,68.67
2023-05-04T05:15:18.927Z,68.87
2023-05-04T05:17:46.748Z,68.70
2023-05-04T05:20:15.268Z,67.50
2023-05-04T05:22:43.088Z,67.10
2023-05-04T05:25:10.914Z,66.03
2023-05-04T05:27:38.317Z,67.30
2023-05-04T05:30:06.741Z,64.75
2023-05-04T05:32:34.810Z,63.49
2023-05-04T05:35:02.693Z,63.32
2023-05-04T05:37:30.710Z,62.75
2023-05-04T05:39:59.752Z,61.43
2023-05-04T05:42:29.482Z,61.07
2023-05-04T05:44:58.171Z,60.18
2023-05-04T05:47:25.874Z,59.94
2023-05-04T05:49:53.409Z,58.61
2023-05-04T05:52:20.941Z,57.27
2023-05-04T05:54:48.749Z,55.14
2023-05-04T05:57:16.409Z,56.52
2023-05-04T05:59:44.758Z,56.51
2023-05-04T06:02:14.917Z,54.84
2023-05-04T06:04:43.336Z,54.59
2023-05-04T06:07:10.852Z,52.65
2023-05-04T06:09:38.251Z,52.48
2023-05-04T06:12:07.238Z,52.72
2023-05-04T06:14:34.611Z,53.45
2023-05-04T06:17:01.964Z,50.76
2023-05-04T06:19:31.588Z,51.69
2023-05-04T06:21:59.022Z,49.92
2023-05-04T06:24:27.138Z,50.24
2023-05-04T06:26:55.159Z,49.82
2023-05-04T06:29:22.733Z,50.49
2023-05-04T06:31:50.211Z,48.96
2023-05-04T06:34:18.012Z,48.08
2023-05-04T06:36:45.525Z,49.19
2023-05-04T06:39:13.030Z,48.49
2023-05-04T06:41:40.856Z,48.30
2023-05-04T06:44:08.620Z,47.89
2023-05-04T06:46:39.241Z,47.76
2023-05-04T06:49:06.878Z,47.75
2023-05-04T06:51:37.666Z,47.63
2023-05-04T06:54:05.212Z,48.15
2023-05-04T06:56:32.946Z,47.84
2023-05-04T06:59:00.493Z,47.09
2023-05-04T07:01:27.889Z,47.78
2023-05-04T07:03:58.366Z,47.24
2023-05-04T07:06:27.229Z,48.65
2023-05-04T07:08:54.648Z,47.95
2023-05-04T07:11:22.325Z,49.23
2023-05-04T07:13:49.953Z,47.33
2023-05-04T07:16:17.368Z,46.45
2023-05-04T07:37:46.431Z,43.76
2023-05-04T07:40:14.900Z,43.54
2023-05-04T07:42:42.277Z,43.49
2023-05-04T07:45:10.538Z,45.48
2023-05-04T07:47:38.273Z,43.38
2023-05-04T07:50:06.302Z,43.42
2023-05-04T07:52:33.857Z,43.31
2023-05-04T07:55:01.500Z,45.54
2023-05-04T07:57:28.848Z,45.61
2023-05-04T07:59:56.265Z,44.06
2023-05-04T08:02:24.114Z,45.04
2023-05-04T08:04:51.874Z,42.99
2023-05-04T08:07:20.608Z,43.47
2023-05-04T08:09:48.168Z,43.95
2023-05-04T08:12:15.864Z,44.58
2023-05-04T08:14:46.985Z,43.64
2023-05-04T08:17:14.350Z,44.62
2023-05-04T08:19:41.965Z,43.78
2023-05-04T08:22:09.492Z,43.31
2023-05-04T08:24:37.142Z,44.06
2023-05-04T08:27:08.677Z,43.47
2023-05-04T08:29:37.682Z,42.38
2023-05-04T08:32:06.174Z,42.52
2023-05-04T08:34:33.786Z,42.25
2023-05-04T08:37:02.377Z,42.35
2023-05-04T08:39:30.586Z,43.08
2023-05-04T08:41:58.074Z,42.26
2023-05-04T08:44:25.706Z,42.78
2023-05-04T08:46:53.822Z,42.76
2023-05-04T08:49:22.789Z,42.62
2023-05-04T08:51:50.752Z,41.97
2023-05-04T08:54:18.938Z,42.01
2023-05-04T08:56:47.198Z,42.00
2023-05-04T08:59:22.033Z,42.13
2023-05-04T09:01:52.099Z,41.79
2023-05-04T09:04:20.751Z,40.87
2023-05-04T09:06:48.368Z,40.28
2023-05-04T09:09:16.289Z,41.63
2023-05-04T09:11:43.759Z,42.44
2023-05-04T09:14:11.378Z,40.87
2023-05-04T09:16:39.163Z,41.70
2023-05-04T09:19:17.806Z,39.93
2023-05-04T09:21:47.108Z,40.63
2023-05-04T09:24:14.585Z,42.23
2023-05-04T09:26:41.965Z,43.19
2023-05-04T09:29:14.051Z,41.39
2023-05-04T09:31:52.209Z,42.24
2023-05-04T09:34:21.464Z,42.66
2023-05-04T09:37:02.612Z,42.30
2023-05-04T09:39:30.707Z,41.24
2023-05-04T09:41:58.137Z,42.37
2023-05-04T09:44:28.224Z,42.65
2023-05-04T09:46:59.837Z,43.76
2023-05-04T09:49:38.999Z,43.52
2023-05-04T09:52:07.079Z,42.08
2023-05-04T09:54:36.225Z,41.24
2023-05-04T09:57:14.614Z,42.25
2023-05-04T09:59:42.440Z,39.79
2023-05-04T10:02:21.997Z,40.11
2023-05-04T10:04:52.174Z,41.47
2023-05-04T10:07:20.771Z,41.08
2023-05-04T10:09:49.157Z,45.61
2023-05-04T10:12:16.970Z,46.50
2023-05-04T10:14:46.994Z,46.40
2023-05-04T10:17:20.711Z,46.98
2023-05-04T10:20:19.646Z,45.23
2023-05-04T10:22:52.687Z,43.97
2023-05-04T10:25:50.044Z,43.94
2023-05-04T10:28:29.484Z,45.43
2023-05-04T10:30:58.366Z,46.72
2023-05-04T10:33:26.753Z,46.46
2023-05-04T10:35:54.742Z,45.65
2023-05-04T10:38:33.217Z,43.54
2023-05-04T10:41:00.594Z,43.76
2023-05-04T10:43:32.603Z,44.58
2023-05-04T10:46:02.165Z,43.17
2023-05-04T10:48:35.114Z,43.41
2023-05-04T10:51:02.506Z,44.57
2023-05-04T10:53:33.971Z,43.23
2023-05-04T10:56:01.334Z,42.79
2023-05-04T10:58:29.126Z,42.80
2023-05-04T11:00:56.982Z,43.46
2023-05-04T11:03:25.094Z,43.61
2023-05-04T11:05:54.682Z,42.17
2023-05-04T11:08:24.665Z,41.15
2023-05-04T11:11:03.381Z,42.79
2023-05-04T11:13:33.846Z,42.23
2023-05-04T11:16:01.749Z,42.23
2023-05-04T11:18:34.415Z,38.70
2023-05-04T11:21:02.588Z,40.36
2023-05-04T11:23:30.760Z,39.01
2023-05-04T11:25:58.153Z,40.30
2023-05-04T11:28:36.174Z,39.99
2023-05-04T11:31:17.193Z,39.00
2023-05-04T11:33:46.366Z,40.71
2023-05-04T11:36:14.028Z,39.61
2023-05-04T11:38:41.769Z,41.09
2023-05-04T11:41:10.130Z,44.21
2023-05-04T11:43:38.162Z,44.84
2023-05-04T11:46:06.662Z,44.93
2023-05-04T11:48:35.563Z,45.75
2023-05-04T11:51:03.792Z,45.70
2023-05-04T11:53:38.706Z,45.09
2023-05-04T11:56:08.993Z,46.45
2023-05-04T11:58:37.013Z,47.08
2023-05-04T12:01:04.738Z,49.82
2023-05-04T12:03:53.183Z,50.74
2023-05-04T12:06:32.610Z,50.77
2023-05-04T12:09:05.969Z,50.61
2023-05-04T12:11:34.878Z,49.65
2023-05-04T12:14:05.125Z,48.31
2023-05-04T12:16:33.493Z,50.25
2023-05-04T12:19:12.726Z,50.09
2023-05-04T12:21:54.422Z,49.93
2023-05-04T12:24:23.551Z,49.00
2023-05-04T12:26:51.604Z,49.71
2023-05-04T12:29:19.188Z,50.24
2023-05-04T12:31:47.685Z,50.85
2023-05-04T12:34:15.580Z,50.45
2023-05-04T12:36:44.492Z,49.58
2023-05-04T12:39:11.979Z,50.77
2023-05-04T12:41:40.207Z,50.63
2023-05-04T12:44:09.185Z,49.19
2023-05-04T12:46:37.427Z,48.37
2023-05-04T12:49:06.336Z,48.79
2023-05-04T12:51:33.750Z,48.27
2023-05-04T12:54:01.203Z,47.66
2023-05-04T12:56:28.963Z,46.58
2023-05-04T12:58:56.523Z,45.17
2023-05-04T13:01:24.050Z,46.17
2023-05-04T13:03:51.956Z,44.65
2023-05-04T13:06:19.875Z,44.83
2023-05-04T13:08:47.395Z,47.03
2023-05-04T13:11:19.180Z,46.99
2023-05-04T13:13:46.590Z,48.11
2023-05-04T13:16:14.212Z,46.67
2023-05-04T13:18:43.374Z,46.99
2023-05-04T13:21:11.481Z,48.01
2023-05-04T13:23:38.860Z,45.82
2023-05-04T13:26:06.686Z,47.96
2023-05-04T13:28:34.065Z,47.65
2023-05-04T13:31:01.691Z,46.87
2023-05-04T13:33:30.766Z,49.01
2023-05-04T13:35:59.097Z,46.54
2023-05-04T13:38:27.027Z,48.42
2023-05-04T13:40:55.577Z,48.24
2023-05-04T13:43:23.128Z,47.76
2023-05-04T13:45:50.880Z,47.48
2023-05-04T13:48:18.776Z,48.05
2023-05-04T13:50:46.165Z,49.17
2023-05-04T13:53:13.652Z,49.06
2023-05-04T13:55:41.418Z,49.00
2023-05-04T13:58:08.881Z,47.62
2023-05-04T14:00:36.333Z,49.03
2023-05-04T14:03:05.469Z,50.77
2023-05-04T14:05:35.353Z,48.42
2023-05-04T14:08:03.016Z,48.69
2023-05-04T14:10:30.791Z,48.29
2023-05-04T14:12:59.069Z,47.93
2023-05-04T14:15:27.637Z,50.06
2023-05-04T14:17:55.428Z,49.27
2023-05-04T14:20:22.969Z,48.92
2023-05-04T14:22:50.383Z,48.77
2023-05-04T14:25:18.208Z,47.22
2023-05-04T14:27:46.317Z,47.07
2023-05-04T14:30:14.171Z,47.28
2023-05-04T14:32:42.115Z,47.86
2023-05-04T14:35:10.947Z,48.64
2023-05-04T14:37:39.647Z,46.48
2023-05-04T14:40:09.421Z,47.06
2023-05-04T14:42:37.498Z,47.28
2023-05-04T14:45:06.921Z,47.85
2023-05-04T14:47:35.129Z,48.18
2023-05-04T14:50:02.654Z,47.63
2023-05-04T14:52:31.573Z,46.71
2023-05-04T14:54:59.276Z,47.47
2023-05-04T14:57:27.635Z,47.69
2023-05-04T14:59:55.172Z,46.97
2023-05-04T15:02:23.063Z,47.36
2023-05-04T15:04:50.632Z,46.87
2023-05-04T15:07:20.831Z,45.98
2023-05-04T15:09:49.031Z,45.32
2023-05-04T15:12:17.590Z,47.35
2023-05-04T15:14:46.120Z,47.60
2023-05-04T15:17:14.865Z,47.71
2023-05-04T15:19:43.754Z,47.78
2023-05-04T15:22:11.306Z,47.23
2023-05-04T15:24:38.996Z,48.00
2023-05-04T15:27:06.596Z,46.69
2023-05-04T15:29:33.999Z,47.51
2023-05-04T15:32:01.718Z,45.86
2023-05-04T15:34:31.625Z,47.16
2023-05-04T15:36:59.002Z,47.39
2023-05-04T15:39:26.714Z,48.50
2023-05-04T15:41:54.132Z,48.29
2023-05-04T15:44:21.693Z,48.65
2023-05-04T15:46:49.876Z,48.81
2023-05-04T15:49:17.341Z,48.53
2023-05-04T15:51:45.033Z,48.41
2023-05-04T15:54:12.747Z,47.98
2023-05-04T15:56:40.243Z,48.86
2023-05-04T15:59:07.738Z,49.28
2023-05-04T16:01:35.610Z,48.71
2023-05-04T16:04:03.456Z,49.15
2023-05-04T16:06:31.315Z,48.42
2023-05-04T16:08:58.704Z,49.53
2023-05-04T16:11:26.352Z,48.85
2023-05-04T16:13:53.752Z,48.66
2023-05-04T16:16:21.368Z,48.84
2023-05-04T16:18:49.051Z,48.88
2023-05-04T16:21:16.675Z,49.38
2023-05-04T16:23:44.182Z,49.72
2023-05-04T16:26:12.090Z,49.20
2023-05-04T16:28:40.563Z,48.02
2023-05-04T16:31:10.308Z,48.02
2023-05-04T16:33:41.549Z,49.34
2023-05-04T16:36:09.429Z,48.34
2023-05-04T16:38:36.808Z,48.45
2023-05-04T16:41:04.575Z,49.23
2023-05-04T16:43:32.071Z,48.78
2023-05-04T16:45:59.612Z,49.20
2023-05-04T16:48:27.304Z,49.40
2023-05-04T16:50:54.744Z,49.36
2023-05-04T16:53:24.025Z,49.20
2023-05-04T16:55:52.361Z,49.83
2023-05-04T16:58:19.713Z,49.36
2023-05-04T17:00:47.112Z,49.26
2023-05-04T17:03:14.844Z,49.09
2023-05-04T17:05:42.261Z,49.11
2023-05-04T17:08:11.376Z,49.22
2023-05-04T17:10:40.021Z,49.93
2023-05-04T17:13:07.667Z,50.05
2023-05-04T17:15:35.126Z,49.90
2023-05-04T17:18:02.813Z,49.77
2023-05-04T17:20:32.036Z,51.47
2023-05-04T17:22:59.693Z,50.94
2023-05-04T17:25:27.480Z,52.01
2023-05-04T17:27:54.934Z,51.62
2023-05-04T17:30:22.486Z,51.00
2023-05-04T17:32:51.139Z,51.12
2023-05-04T17:35:25.041Z,51.61
2023-05-04T17:37:57.929Z,51.91
2023-05-04T17:40:29.581Z,51.69
2023-05-04T17:43:00.828Z,51.90
2023-05-04T17:45:28.389Z,51.73
2023-05-04T17:47:57.161Z,51.98
2023-05-04T17:50:25.616Z,51.81
2023-05-04T17:52:56.497Z,51.85
2023-05-04T17:55:27.737Z,51.66
2023-05-04T17:57:55.470Z,51.76
2023-05-04T18:00:23.688Z,52.11
2023-05-04T18:02:51.840Z,52.57
2023-05-04T18:05:19.874Z,52.68
2023-05-04T18:07:47.432Z,52.21
2023-05-04T18:10:16.105Z,52.22
2023-05-04T18:12:43.496Z,53.00
2023-05-04T18:15:10.972Z,53.25
2023-05-04T18:17:38.961Z,53.26
2023-05-04T18:20:11.371Z,53.38
2023-05-04T18:22:39.248Z,53.52
2023-05-04T18:25:07.348Z,53.29
2023-05-04T18:27:35.564Z,53.42
2023-05-04T18:30:04.454Z,53.23
2023-05-04T18:32:34.043Z,53.19
2023-05-04T18:35:02.472Z,53.60
2023-05-04T18:37:31.912Z,54.25
2023-05-04T18:40:00.082Z,54.34
2023-05-04T18:42:27.872Z,54.46
2023-05-04T18:44:56.282Z,54.25
2023-05-04T18:47:24.116Z,54.40
2023-05-04T18:49:52.901Z,54.59
2023-05-04T18:52:21.870Z,54.76
2023-05-04T18:54:49.736Z,54.42
2023-05-04T18:57:17.416Z,54.59
2023-05-04T18:59:45.272Z,54.84
2023-05-04T19:02:13.520Z,54.78
2023-05-04T19:04:41.517Z,55.41
2023-05-04T19:07:09.940Z,55.42
2023-05-04T19:09:37.895Z,55.25
2023-05-04T19:12:05.664Z,55.57
2023-05-04T19:14:33.627Z,55.42
2023-05-04T19:17:02.291Z,55.05
2023-05-04T19:19:30.651Z,55.30
2023-05-04T19:21:58.655Z,55.56
2023-05-04T19:24:26.405Z,55.65
2023-05-04T19:26:53.947Z,55.51
2023-05-04T19:29:21.351Z,55.88
2023-05-04T19:31:49.068Z,56.35
2023-05-04T19:34:17.701Z,56.14
2023-05-04T19:36:45.373Z,56.60
2023-05-04T19:39:13.364Z,56.62
2023-05-04T19:41:40.720Z,56.97
2023-05-04T19:44:10.060Z,56.66
2023-05-04T19:46:37.787Z,56.44
2023-05-04T19:49:05.196Z,56.60
2023-05-04T19:51:32.915Z,56.36
2023-05-04T19:54:00.950Z,56.48
2023-05-04T19:56:28.460Z,56.96
2023-05-04T19:58:55.850Z,56.63
2023-05-04T20:01:24.944Z,56.70
2023-05-04T20:03:52.893Z,56.81
2023-05-04T20:06:20.313Z,57.30
2023-05-04T20:08:47.797Z,57.67
2023-05-04T20:11:15.660Z,57.74
2023-05-04T20:13:43.044Z,56.85
2023-05-04T20:16:10.456Z,56.86
2023-05-04T20:18:38.143Z,57.05
2023-05-04T20:21:05.583Z,57.06
2023-05-04T20:23:33.153Z,57.93
2023-05-04T20:26:00.921Z,57.57
2023-05-04T20:28:28.297Z,57.05
2023-05-04T20:30:55.759Z,57.10
2023-05-04T20:33:23.554Z,57.36
2023-05-04T20:35:51.059Z,57.42
2023-05-04T20:38:18.441Z,57.77
2023-05-04T20:40:46.068Z,57.62
2023-05-04T20:43:13.429Z,57.86
2023-05-04T20:45:40.801Z,57.67
2023-05-04T20:48:09.067Z,58.02
2023-05-04T20:50:36.673Z,58.36
2023-05-04T20:53:04.350Z,58.34
2023-05-04T20:55:32.016Z,58.76
2023-05-04T20:57:59.386Z,58.56
2023-05-04T21:00:26.769Z,58.65
2023-05-04T21:02:55.757Z,58.51
2023-05-04T21:05:23.220Z,58.66
2023-05-04T21:07:52.240Z,58.58
2023-05-04T21:10:20.401Z,58.51
2023-05-04T21:12:48.023Z,58.14
2023-05-04T21:15:15.514Z,58.43
2023-05-04T21:17:43.242Z,58.32
2023-05-04T21:20:10.915Z,58.34
2023-05-04T21:22:38.434Z,58.92
2023-05-04T21:25:06.998Z,59.05
2023-05-04T21:27:34.371Z,60.83
2023-05-04T21:30:09.818Z,60.81
2023-05-04T21:32:38.253Z,60.66
2023-05-04T21:35:06.729Z,60.88
2023-05-04T21:37:34.148Z,61.16
2023-05-04T21:40:02.172Z,60.61
2023-05-04T21:42:30.002Z,59.62
2023-05-04T21:44:57.657Z,59.58
2023-05-04T21:47:26.310Z,59.74
2023-05-04T21:49:54.663Z,59.96
2023-05-04T21:52:22.644Z,60.04
2023-05-04T21:54:50.312Z,59.89
2023-05-04T21:57:17.808Z,60.57
2023-05-04T21:59:49.613Z,60.66
2023-05-04T22:02:17.605Z,61.07
2023-05-04T22:04:45.592Z,60.98
2023-05-04T22:07:13.018Z,60.85
2023-05-04T22:09:40.410Z,61.96
2023-05-04T22:12:08.217Z,60.28
2023-05-04T22:14:35.639Z,60.13
2023-05-04T22:17:03.177Z,58.47
2023-05-04T22:19:30.927Z,59.09
2023-05-04T22:21:58.360Z,59.11
2023-05-04T22:24:27.043Z,57.66
2023-05-04T22:26:54.760Z,56.89
2023-05-04T22:29:22.678Z,55.90
2023-05-04T22:31:50.056Z,56.02
2023-05-04T22:34:17.658Z,55.52
2023-05-04T22:36:45.012Z,55.32
2023-05-04T22:39:12.450Z,56.20
2023-05-04T22:41:40.107Z,54.97
2023-05-04T22:44:07.508Z,53.07
2023-05-04T22:46:34.994Z,52.48
2023-05-04T22:49:02.719Z,51.93
2023-05-04T22:51:30.262Z,52.63
2023-05-04T22:53:57.597Z,51.56
2023-05-04T22:56:25.923Z,52.15
2023-05-04T22:58:53.270Z,51.56
2023-05-04T23:01:20.736Z,51.56
2023-05-04T23:03:49.061Z,52.09
2023-05-04T23:06:16.500Z,50.87
2023-05-04T23:08:45.373Z,50.07
2023-05-04T23:11:12.994Z,51.05
2023-05-04T23:13:40.321Z,50.71
2023-05-04T23:16:07.964Z,49.57
2023-05-04T23:18:35.702Z,49.64
2023-05-04T23:21:03.242Z,50.80
2023-05-04T23:23:31.586Z,50.66
2023-05-04T23:25:59.397Z,50.50
2023-05-04T23:28:26.735Z,50.59
2023-05-04T23:30:55.763Z,51.16
2023-05-04T23:33:23.563Z,50.99
2023-05-04T23:35:54.328Z,51.43
2023-05-04T23:38:22.879Z,51.10
2023-05-04T23:40:51.646Z,51.10
2023-05-04T23:43:19.012Z,51.44
2023-05-04T23:45:46.414Z,51.04
2023-05-04T23:48:14.075Z,51.58
2023-05-04T23:50:41.540Z,51.71
2023-05-04T23:53:08.890Z,51.69
2023-05-04T23:55:36.468Z,51.13
2023-05-04T23:58:03.808Z,50.57
